BCS153 LPMA-LPFR
Flight info
| Callsign | BCS153 |
|---|---|
| Flight time | 1h 23m |
| Altitude | 34000 |
| Route | DEGUN DCT NARTA DCT GIMAL |
| Aircraft | R722/M-SDFGRWY/S |
Departure
| Time | 2026-05-06 20:43 |
|---|---|
| Airport | Cristiano Ronaldo International Airport (LPMA) |
Arrival
| Time | 2026-05-06 22:07 |
|---|---|
| Airport | Faro - Gago Coutinho International Airport (LPFR) |
| Time | Latitude | Longitude | Altitude | Speed | Heading |
|---|---|---|---|---|---|
| 2026-05-06 20:19 | 32.69239 | -16.77831 | 167 ft | 0 kts | 137° |
| 2026-05-06 20:36 | 32.69254 | -16.77845 | 173 ft | 4 kts | 147° |
| 2026-05-06 20:36 | 32.69277 | -16.77855 | 173 ft | 4 kts | 181° |
| 2026-05-06 20:36 | 32.69292 | -16.77846 | 174 ft | 4 kts | 249° |
| 2026-05-06 20:36 | 32.69293 | -16.77838 | 174 ft | 0 kts | 263° |
| 2026-05-06 20:40 | 32.69289 | -16.77854 | 173 ft | 1 kts | 252° |
| 2026-05-06 20:40 | 32.69288 | -16.77860 | 173 ft | 2 kts | 262° |
| 2026-05-06 20:40 | 32.69287 | -16.77910 | 173 ft | 11 kts | 268° |
| 2026-05-06 20:41 | 32.69272 | -16.78042 | 169 ft | 22 kts | 242° |
| 2026-05-06 20:41 | 32.69146 | -16.78200 | 161 ft | 28 kts | 224° |
| 2026-05-06 20:41 | 32.69059 | -16.78299 | 158 ft | 15 kts | 218° |
| 2026-05-06 20:41 | 32.69014 | -16.78322 | 156 ft | 11 kts | 211° |
| 2026-05-06 20:42 | 32.69027 | -16.78337 | 156 ft | 9 kts | 40° |
| 2026-05-06 20:42 | 32.69092 | -16.78267 | 159 ft | 0 kts | 46° |
| 2026-05-06 20:42 | 32.69106 | -16.78248 | 160 ft | 11 kts | 50° |
| 2026-05-06 20:42 | 32.69134 | -16.78212 | 161 ft | 0 kts | 45° |
| 2026-05-06 20:43 | 32.69189 | -16.78149 | 163 ft | 44 kts | 44° |
| 2026-05-06 20:43 | 32.69625 | -16.77640 | 194 ft | 129 kts | 44° |
| 2026-05-06 20:43 | 32.70364 | -16.76762 | 635 ft | 156 kts | 46° |
| 2026-05-06 20:43 | 32.71016 | -16.75672 | 1493 ft | 167 kts | 56° |
| 2026-05-06 20:44 | 32.71361 | -16.74300 | 2234 ft | 187 kts | 85° |
| 2026-05-06 20:44 | 32.71135 | -16.72735 | 3095 ft | 194 kts | 111° |
| 2026-05-06 20:44 | 32.70349 | -16.71487 | 4159 ft | 188 kts | 136° |
| 2026-05-06 20:44 | 32.69281 | -16.70570 | 4878 ft | 202 kts | 154° |
| 2026-05-06 20:45 | 32.67866 | -16.70187 | 5494 ft | 216 kts | 182° |
| 2026-05-06 20:45 | 32.66421 | -16.70558 | 6432 ft | 208 kts | 202° |
| 2026-05-06 20:45 | 32.65049 | -16.71121 | 7064 ft | 221 kts | 201° |
| 2026-05-06 20:45 | 32.63445 | -16.71730 | 7201 ft | 261 kts | 196° |
| 2026-05-06 20:46 | 32.61590 | -16.71712 | 7961 ft | 268 kts | 169° |
| 2026-05-06 20:46 | 32.59872 | -16.70926 | 9009 ft | 269 kts | 147° |
| 2026-05-06 20:46 | 32.58518 | -16.69345 | 9695 ft | 279 kts | 121° |
| 2026-05-06 20:46 | 32.57787 | -16.67272 | 10528 ft | 278 kts | 97° |
| 2026-05-06 20:47 | 32.57798 | -16.65002 | 11288 ft | 276 kts | 73° |
| 2026-05-06 20:47 | 32.58551 | -16.62935 | 12030 ft | 273 kts | 50° |
| 2026-05-06 20:47 | 32.59790 | -16.61226 | 12792 ft | 274 kts | 39° |
| 2026-05-06 20:47 | 32.61232 | -16.59737 | 13554 ft | 276 kts | 36° |
| 2026-05-06 20:48 | 32.62694 | -16.58232 | 14262 ft | 281 kts | 38° |
| 2026-05-06 20:48 | 32.64118 | -16.56632 | 14961 ft | 283 kts | 39° |
| 2026-05-06 20:48 | 32.65547 | -16.55017 | 15626 ft | 285 kts | 38° |
| 2026-05-06 20:48 | 32.66985 | -16.53434 | 16301 ft | 287 kts | 38° |
| 2026-05-06 20:49 | 32.68452 | -16.51818 | 16943 ft | 289 kts | 38° |
| 2026-05-06 20:49 | 32.69930 | -16.50178 | 17589 ft | 292 kts | 38° |
| 2026-05-06 20:49 | 32.71416 | -16.48527 | 18233 ft | 294 kts | 38° |
| 2026-05-06 20:49 | 32.72918 | -16.46861 | 18796 ft | 296 kts | 38° |
| 2026-05-06 20:50 | 32.74427 | -16.45186 | 19313 ft | 299 kts | 38° |
| 2026-05-06 20:50 | 32.75950 | -16.43495 | 19856 ft | 300 kts | 37° |
| 2026-05-06 20:50 | 32.77479 | -16.41797 | 20370 ft | 302 kts | 37° |
| 2026-05-06 20:50 | 32.79022 | -16.40081 | 20895 ft | 304 kts | 37° |
| 2026-05-06 20:51 | 32.80512 | -16.38424 | 21404 ft | 306 kts | 37° |
| 2026-05-06 20:51 | 32.82052 | -16.36710 | 21917 ft | 309 kts | 37° |
| 2026-05-06 20:51 | 32.83623 | -16.34960 | 22442 ft | 311 kts | 37° |
| 2026-05-06 20:51 | 32.85207 | -16.33197 | 22961 ft | 313 kts | 37° |
| 2026-05-06 20:52 | 32.86798 | -16.31424 | 23479 ft | 315 kts | 37° |
| 2026-05-06 20:52 | 32.88400 | -16.29637 | 23952 ft | 317 kts | 37° |
| 2026-05-06 20:52 | 32.90016 | -16.27834 | 24402 ft | 319 kts | 36° |
| 2026-05-06 20:52 | 32.91638 | -16.26023 | 24838 ft | 321 kts | 36° |
| 2026-05-06 20:53 | 32.93271 | -16.24199 | 25289 ft | 323 kts | 36° |
| 2026-05-06 20:53 | 32.94892 | -16.22388 | 25736 ft | 325 kts | 36° |
| 2026-05-06 20:53 | 32.96543 | -16.20543 | 26191 ft | 327 kts | 36° |
| 2026-05-06 20:53 | 32.98203 | -16.18686 | 26636 ft | 329 kts | 36° |
| 2026-05-06 20:54 | 32.99876 | -16.16814 | 27088 ft | 331 kts | 36° |
| 2026-05-06 20:54 | 33.01563 | -16.14925 | 27475 ft | 337 kts | 36° |
| 2026-05-06 20:54 | 33.03290 | -16.12994 | 27904 ft | 339 kts | 36° |
| 2026-05-06 20:54 | 33.05036 | -16.11035 | 28106 ft | 351 kts | 36° |
| 2026-05-06 20:55 | 33.06853 | -16.09003 | 28265 ft | 364 kts | 36° |
| 2026-05-06 20:55 | 33.08717 | -16.06908 | 28671 ft | 370 kts | 37° |
| 2026-05-06 20:55 | 33.10560 | -16.04826 | 29305 ft | 370 kts | 36° |
| 2026-05-06 20:55 | 33.12447 | -16.02708 | 29797 ft | 375 kts | 36° |
| 2026-05-06 20:56 | 33.14350 | -16.00575 | 30301 ft | 377 kts | 36° |
| 2026-05-06 20:56 | 33.16264 | -15.98419 | 30787 ft | 379 kts | 36° |
| 2026-05-06 20:56 | 33.18187 | -15.96251 | 31262 ft | 382 kts | 36° |
| 2026-05-06 20:56 | 33.20125 | -15.94068 | 31735 ft | 384 kts | 36° |
| 2026-05-06 20:57 | 33.22073 | -15.91874 | 32204 ft | 386 kts | 36° |
| 2026-05-06 20:57 | 33.24031 | -15.89665 | 32665 ft | 388 kts | 36° |
| 2026-05-06 20:57 | 33.25975 | -15.87469 | 33128 ft | 391 kts | 36° |
| 2026-05-06 20:57 | 33.27956 | -15.85232 | 33585 ft | 393 kts | 36° |
| 2026-05-06 20:58 | 33.29948 | -15.82981 | 34049 ft | 395 kts | 36° |
| 2026-05-06 20:58 | 33.31975 | -15.80694 | 34110 ft | 408 kts | 36° |
| 2026-05-06 20:58 | 33.34072 | -15.78328 | 34124 ft | 421 kts | 36° |
| 2026-05-06 20:58 | 33.36232 | -15.75878 | 34130 ft | 435 kts | 36° |
| 2026-05-06 20:59 | 33.38453 | -15.73354 | 34123 ft | 445 kts | 36° |
| 2026-05-06 20:59 | 33.42933 | -15.68261 | 34118 ft | 443 kts | 36° |
| 2026-05-06 21:00 | 33.47373 | -15.63221 | 34116 ft | 443 kts | 36° |
| 2026-05-06 21:00 | 33.51836 | -15.58139 | 34120 ft | 442 kts | 36° |
| 2026-05-06 21:01 | 33.56296 | -15.53057 | 34118 ft | 443 kts | 36° |
| 2026-05-06 21:01 | 33.60754 | -15.47967 | 34115 ft | 442 kts | 36° |
| 2026-05-06 21:02 | 33.65179 | -15.42909 | 34119 ft | 442 kts | 36° |
| 2026-05-06 21:02 | 33.69634 | -15.37808 | 34119 ft | 442 kts | 36° |
| 2026-05-06 21:03 | 33.74085 | -15.32705 | 34111 ft | 442 kts | 36° |
| 2026-05-06 21:03 | 33.78535 | -15.27593 | 34114 ft | 442 kts | 36° |
| 2026-05-06 21:04 | 33.83015 | -15.22448 | 34110 ft | 453 kts | 36° |
| 2026-05-06 21:04 | 33.87507 | -15.17261 | 34114 ft | 450 kts | 36° |
| 2026-05-06 21:05 | 33.92028 | -15.12054 | 34110 ft | 449 kts | 36° |
| 2026-05-06 21:05 | 33.96537 | -15.06840 | 34110 ft | 449 kts | 36° |
| 2026-05-06 21:06 | 34.01047 | -15.01623 | 34107 ft | 449 kts | 36° |
| 2026-05-06 21:06 | 34.05551 | -14.96401 | 34110 ft | 449 kts | 36° |
| 2026-05-06 21:07 | 34.10023 | -14.91210 | 34108 ft | 449 kts | 36° |
| 2026-05-06 21:07 | 34.14521 | -14.85980 | 34107 ft | 449 kts | 36° |
| 2026-05-06 21:08 | 34.19022 | -14.80739 | 34106 ft | 450 kts | 36° |
| 2026-05-06 21:08 | 34.23523 | -14.75489 | 34104 ft | 450 kts | 36° |
| 2026-05-06 21:09 | 34.28019 | -14.70239 | 34108 ft | 449 kts | 36° |
| 2026-05-06 21:09 | 34.32483 | -14.65014 | 34107 ft | 450 kts | 36° |
| 2026-05-06 21:10 | 34.36978 | -14.59749 | 34103 ft | 450 kts | 36° |
| 2026-05-06 21:10 | 34.41469 | -14.54476 | 34100 ft | 450 kts | 36° |
| 2026-05-06 21:11 | 34.45965 | -14.49193 | 34102 ft | 450 kts | 36° |
| 2026-05-06 21:11 | 34.50462 | -14.43898 | 34100 ft | 451 kts | 36° |
| 2026-05-06 21:12 | 34.54937 | -14.38621 | 34092 ft | 452 kts | 36° |
| 2026-05-06 21:12 | 34.59444 | -14.33298 | 34094 ft | 453 kts | 36° |
| 2026-05-06 21:13 | 34.63964 | -14.27951 | 34096 ft | 454 kts | 36° |
| 2026-05-06 21:13 | 34.68454 | -14.22631 | 34093 ft | 454 kts | 37° |
| 2026-05-06 21:14 | 34.72981 | -14.17259 | 34096 ft | 455 kts | 37° |
| 2026-05-06 21:14 | 34.77510 | -14.11873 | 34096 ft | 456 kts | 37° |
| 2026-05-06 21:15 | 34.82050 | -14.06468 | 34093 ft | 457 kts | 37° |
| 2026-05-06 21:15 | 34.86589 | -14.01055 | 34095 ft | 457 kts | 37° |
| 2026-05-06 21:16 | 34.91099 | -13.95668 | 34092 ft | 457 kts | 37° |
| 2026-05-06 21:16 | 34.95643 | -13.90231 | 34094 ft | 458 kts | 37° |
| 2026-05-06 21:17 | 35.00184 | -13.84790 | 34084 ft | 458 kts | 37° |
| 2026-05-06 21:17 | 35.04724 | -13.79339 | 34080 ft | 458 kts | 37° |
| 2026-05-06 21:18 | 35.09232 | -13.73919 | 34078 ft | 458 kts | 37° |
| 2026-05-06 21:18 | 35.13773 | -13.68450 | 34081 ft | 458 kts | 37° |
| 2026-05-06 21:19 | 35.18314 | -13.62972 | 34082 ft | 459 kts | 37° |
| 2026-05-06 21:19 | 35.22854 | -13.57485 | 34080 ft | 459 kts | 37° |
| 2026-05-06 21:20 | 35.27396 | -13.51989 | 34083 ft | 459 kts | 37° |
| 2026-05-06 21:20 | 35.31939 | -13.46479 | 34081 ft | 460 kts | 37° |
| 2026-05-06 21:21 | 35.36454 | -13.40998 | 34075 ft | 460 kts | 37° |
| 2026-05-06 21:21 | 35.41000 | -13.35466 | 34079 ft | 461 kts | 37° |
| 2026-05-06 21:22 | 35.45547 | -13.29927 | 34077 ft | 461 kts | 37° |
| 2026-05-06 21:22 | 35.50100 | -13.24368 | 34064 ft | 462 kts | 37° |
| 2026-05-06 21:23 | 35.54621 | -13.18842 | 34075 ft | 462 kts | 37° |
| 2026-05-06 21:23 | 35.59176 | -13.13262 | 34072 ft | 463 kts | 37° |
| 2026-05-06 21:24 | 35.63730 | -13.07676 | 34070 ft | 463 kts | 37° |
| 2026-05-06 21:24 | 35.68290 | -13.02072 | 34068 ft | 464 kts | 37° |
| 2026-05-06 21:25 | 35.72824 | -12.96492 | 34066 ft | 464 kts | 37° |
| 2026-05-06 21:25 | 35.77383 | -12.90868 | 34068 ft | 464 kts | 37° |
| 2026-05-06 21:26 | 35.81949 | -12.85230 | 34069 ft | 465 kts | 37° |
| 2026-05-06 21:26 | 35.86519 | -12.79574 | 34067 ft | 466 kts | 37° |
| 2026-05-06 21:27 | 35.91092 | -12.73906 | 34062 ft | 466 kts | 38° |
| 2026-05-06 21:27 | 35.95634 | -12.68266 | 34068 ft | 467 kts | 38° |
| 2026-05-06 21:28 | 36.00213 | -12.62572 | 34062 ft | 468 kts | 38° |
| 2026-05-06 21:28 | 36.04522 | -12.56487 | 34067 ft | 482 kts | 51° |
| 2026-05-06 21:28 | 36.06018 | -12.52729 | 34064 ft | 494 kts | 63° |
| 2026-05-06 21:29 | 36.07035 | -12.48642 | 34058 ft | 501 kts | 69° |
| 2026-05-06 21:29 | 36.08367 | -12.40193 | 34065 ft | 506 kts | 74° |
| 2026-05-06 21:30 | 36.09847 | -12.31722 | 34060 ft | 502 kts | 70° |
| 2026-05-06 21:30 | 36.11336 | -12.23258 | 34060 ft | 506 kts | 73° |
| 2026-05-06 21:31 | 36.12776 | -12.14749 | 34056 ft | 505 kts | 71° |
| 2026-05-06 21:31 | 36.14266 | -12.06251 | 34059 ft | 506 kts | 73° |
| 2026-05-06 21:32 | 36.15691 | -11.97776 | 34060 ft | 506 kts | 72° |
| 2026-05-06 21:32 | 36.17875 | -11.84985 | 34049 ft | 507 kts | 73° |
| 2026-05-06 21:33 | 36.19330 | -11.76432 | 34041 ft | 508 kts | 73° |
| 2026-05-06 21:33 | 36.20758 | -11.67930 | 34045 ft | 508 kts | 73° |
| 2026-05-06 21:34 | 36.22197 | -11.59360 | 34044 ft | 508 kts | 73° |
| 2026-05-06 21:34 | 36.23629 | -11.50778 | 34042 ft | 509 kts | 73° |
| 2026-05-06 21:35 | 36.25056 | -11.42185 | 34046 ft | 509 kts | 74° |
| 2026-05-06 21:35 | 36.26479 | -11.33583 | 34040 ft | 510 kts | 74° |
| 2026-05-06 21:36 | 36.27886 | -11.25035 | 34042 ft | 510 kts | 74° |
| 2026-05-06 21:36 | 36.29298 | -11.16418 | 34040 ft | 510 kts | 75° |
| 2026-05-06 21:37 | 36.30702 | -11.07799 | 34040 ft | 511 kts | 75° |
| 2026-05-06 21:37 | 36.32104 | -10.99161 | 34033 ft | 511 kts | 75° |
| 2026-05-06 21:38 | 36.33491 | -10.90571 | 34035 ft | 511 kts | 75° |
| 2026-05-06 21:38 | 36.34881 | -10.81921 | 34032 ft | 512 kts | 75° |
| 2026-05-06 21:39 | 36.36266 | -10.73262 | 34026 ft | 512 kts | 76° |
| 2026-05-06 21:39 | 36.37645 | -10.64597 | 34029 ft | 512 kts | 76° |
| 2026-05-06 21:40 | 36.39009 | -10.55988 | 34029 ft | 512 kts | 76° |
| 2026-05-06 21:40 | 36.40376 | -10.47314 | 34025 ft | 512 kts | 76° |
| 2026-05-06 21:41 | 36.41737 | -10.38630 | 34023 ft | 512 kts | 76° |
| 2026-05-06 21:41 | 36.43093 | -10.29944 | 34019 ft | 512 kts | 76° |
| 2026-05-06 21:42 | 36.44442 | -10.21253 | 34017 ft | 513 kts | 76° |
| 2026-05-06 21:42 | 36.45778 | -10.12610 | 34016 ft | 513 kts | 77° |
| 2026-05-06 21:43 | 36.47114 | -10.03912 | 34016 ft | 513 kts | 77° |
| 2026-05-06 21:43 | 36.48445 | -9.95212 | 34011 ft | 512 kts | 77° |
| 2026-05-06 21:44 | 36.49768 | -9.86520 | 34007 ft | 512 kts | 77° |
| 2026-05-06 21:44 | 36.51082 | -9.77835 | 34003 ft | 511 kts | 77° |
| 2026-05-06 21:45 | 36.52392 | -9.69143 | 33839 ft | 512 kts | 77° |
| 2026-05-06 21:45 | 36.53032 | -9.64873 | 33566 ft | 508 kts | 78° |
| 2026-05-06 21:45 | 36.53675 | -9.60573 | 33297 ft | 505 kts | 78° |
| 2026-05-06 21:46 | 36.54315 | -9.56285 | 33027 ft | 503 kts | 78° |
| 2026-05-06 21:46 | 36.54950 | -9.52021 | 32763 ft | 501 kts | 78° |
| 2026-05-06 21:46 | 36.55582 | -9.47768 | 32499 ft | 499 kts | 78° |
| 2026-05-06 21:46 | 36.56208 | -9.43537 | 32241 ft | 497 kts | 78° |
| 2026-05-06 21:47 | 36.56621 | -9.40745 | 32068 ft | 495 kts | 79° |
| 2026-05-06 21:47 | 36.57241 | -9.36541 | 31810 ft | 493 kts | 79° |
| 2026-05-06 21:47 | 36.57858 | -9.32350 | 31556 ft | 492 kts | 79° |
| 2026-05-06 21:47 | 36.58669 | -9.26820 | 31228 ft | 489 kts | 79° |
| 2026-05-06 21:48 | 36.59277 | -9.22661 | 30973 ft | 488 kts | 79° |
| 2026-05-06 21:48 | 36.59882 | -9.18516 | 30729 ft | 486 kts | 79° |
| 2026-05-06 21:48 | 36.60280 | -9.15780 | 30568 ft | 485 kts | 79° |
| 2026-05-06 21:48 | 36.61081 | -9.10264 | 30242 ft | 483 kts | 80° |
| 2026-05-06 21:49 | 36.61474 | -9.07544 | 30083 ft | 482 kts | 80° |
| 2026-05-06 21:49 | 36.62067 | -9.03446 | 29806 ft | 480 kts | 80° |
| 2026-05-06 21:49 | 36.62656 | -8.99365 | 29519 ft | 478 kts | 80° |
| 2026-05-06 21:49 | 36.63428 | -8.93989 | 29149 ft | 475 kts | 80° |
| 2026-05-06 21:50 | 36.64006 | -8.89955 | 28872 ft | 472 kts | 80° |
| 2026-05-06 21:50 | 36.64581 | -8.85939 | 28601 ft | 470 kts | 81° |
| 2026-05-06 21:50 | 36.64960 | -8.83284 | 28411 ft | 469 kts | 81° |
| 2026-05-06 21:50 | 36.65527 | -8.79299 | 28148 ft | 467 kts | 81° |
| 2026-05-06 21:51 | 36.66090 | -8.75331 | 27879 ft | 464 kts | 81° |
| 2026-05-06 21:51 | 36.66651 | -8.71373 | 27182 ft | 459 kts | 81° |
| 2026-05-06 21:51 | 36.67195 | -8.67529 | 26416 ft | 444 kts | 81° |
| 2026-05-06 21:51 | 36.67893 | -8.62580 | 25422 ft | 432 kts | 81° |
| 2026-05-06 21:52 | 36.68405 | -8.58933 | 24693 ft | 425 kts | 81° |
| 2026-05-06 21:52 | 36.68910 | -8.55328 | 23988 ft | 419 kts | 81° |
| 2026-05-06 21:52 | 36.69240 | -8.52971 | 23527 ft | 416 kts | 81° |
| 2026-05-06 21:52 | 36.69734 | -8.49439 | 22706 ft | 410 kts | 81° |
| 2026-05-06 21:53 | 36.70217 | -8.45971 | 21901 ft | 404 kts | 81° |
| 2026-05-06 21:53 | 36.70694 | -8.42544 | 21120 ft | 398 kts | 81° |
| 2026-05-06 21:53 | 36.71313 | -8.38086 | 20280 ft | 390 kts | 82° |
| 2026-05-06 21:53 | 36.71770 | -8.34782 | 19780 ft | 385 kts | 82° |
| 2026-05-06 21:54 | 36.72076 | -8.32562 | 19463 ft | 383 kts | 82° |
| 2026-05-06 21:54 | 36.72525 | -8.29308 | 19007 ft | 380 kts | 82° |
| 2026-05-06 21:54 | 36.72965 | -8.26118 | 18558 ft | 376 kts | 82° |
| 2026-05-06 21:54 | 36.73405 | -8.22912 | 18091 ft | 373 kts | 82° |
| 2026-05-06 21:55 | 36.73839 | -8.19739 | 17574 ft | 370 kts | 82° |
| 2026-05-06 21:55 | 36.74269 | -8.16597 | 17066 ft | 367 kts | 82° |
| 2026-05-06 21:55 | 36.74696 | -8.13474 | 16575 ft | 364 kts | 82° |
| 2026-05-06 21:55 | 36.75118 | -8.10376 | 16083 ft | 361 kts | 82° |
| 2026-05-06 21:56 | 36.75534 | -8.07308 | 15604 ft | 358 kts | 82° |
| 2026-05-06 21:56 | 36.75947 | -8.04264 | 15132 ft | 355 kts | 82° |
| 2026-05-06 21:56 | 36.76372 | -8.01241 | 14664 ft | 352 kts | 79° |
| 2026-05-06 21:56 | 36.77019 | -7.98424 | 14190 ft | 333 kts | 71° |
| 2026-05-06 21:57 | 36.77916 | -7.95823 | 13736 ft | 323 kts | 65° |
| 2026-05-06 21:57 | 36.78849 | -7.93303 | 13225 ft | 315 kts | 68° |
| 2026-05-06 21:57 | 36.79641 | -7.90822 | 12712 ft | 301 kts | 70° |
| 2026-05-06 21:57 | 36.80370 | -7.88419 | 12201 ft | 291 kts | 70° |
| 2026-05-06 21:58 | 36.81115 | -7.86110 | 11708 ft | 282 kts | 69° |
| 2026-05-06 21:58 | 36.81854 | -7.83875 | 11220 ft | 275 kts | 69° |
| 2026-05-06 21:58 | 36.82558 | -7.81688 | 10735 ft | 269 kts | 69° |
| 2026-05-06 21:58 | 36.83244 | -7.79544 | 10275 ft | 263 kts | 69° |
| 2026-05-06 21:59 | 36.83918 | -7.77447 | 9814 ft | 258 kts | 69° |
| 2026-05-06 21:59 | 36.84581 | -7.75389 | 9305 ft | 253 kts | 69° |
| 2026-05-06 21:59 | 36.85222 | -7.73397 | 8820 ft | 249 kts | 69° |
| 2026-05-06 21:59 | 36.85882 | -7.71424 | 8323 ft | 244 kts | 64° |
| 2026-05-06 22:00 | 36.86931 | -7.69790 | 7840 ft | 242 kts | 41° |
| 2026-05-06 22:00 | 36.88362 | -7.68719 | 7369 ft | 241 kts | 21° |
| 2026-05-06 22:00 | 36.89990 | -7.68264 | 6909 ft | 239 kts | 9° |
| 2026-05-06 22:00 | 36.91638 | -7.68106 | 6457 ft | 237 kts | 6° |
| 2026-05-06 22:01 | 36.93272 | -7.67981 | 5981 ft | 234 kts | 7° |
| 2026-05-06 22:01 | 36.94849 | -7.68092 | 5472 ft | 229 kts | 345° |
| 2026-05-06 22:01 | 36.96263 | -7.68936 | 4991 ft | 223 kts | 324° |
| 2026-05-06 22:01 | 36.97320 | -7.70303 | 4543 ft | 217 kts | 303° |
| 2026-05-06 22:02 | 36.97989 | -7.71974 | 4078 ft | 213 kts | 293° |
| 2026-05-06 22:02 | 36.98341 | -7.73759 | 3605 ft | 211 kts | 277° |
| 2026-05-06 22:02 | 36.98481 | -7.75561 | 3259 ft | 206 kts | 278° |
| 2026-05-06 22:02 | 36.98685 | -7.77280 | 2980 ft | 192 kts | 283° |
| 2026-05-06 22:03 | 36.98934 | -7.78879 | 2737 ft | 183 kts | 284° |
| 2026-05-06 22:03 | 36.99140 | -7.80380 | 2498 ft | 172 kts | 283° |
| 2026-05-06 22:03 | 36.99347 | -7.81814 | 2265 ft | 163 kts | 286° |
| 2026-05-06 22:03 | 36.99532 | -7.83133 | 2053 ft | 146 kts | 285° |
| 2026-05-06 22:04 | 36.99701 | -7.84320 | 1867 ft | 131 kts | 288° |
| 2026-05-06 22:04 | 36.99879 | -7.85524 | 1728 ft | 156 kts | 287° |
| 2026-05-06 22:04 | 37.00046 | -7.86830 | 1494 ft | 140 kts | 287° |
| 2026-05-06 22:04 | 37.00214 | -7.87929 | 1291 ft | 117 kts | 287° |
| 2026-05-06 22:05 | 37.00377 | -7.89039 | 1154 ft | 139 kts | 283° |
| 2026-05-06 22:05 | 37.00521 | -7.90209 | 957 ft | 138 kts | 286° |
| 2026-05-06 22:05 | 37.00715 | -7.91398 | 773 ft | 141 kts | 284° |
| 2026-05-06 22:05 | 37.00877 | -7.92608 | 579 ft | 141 kts | 281° |
| 2026-05-06 22:06 | 37.01046 | -7.93788 | 449 ft | 135 kts | 281° |
| 2026-05-06 22:06 | 37.01208 | -7.94950 | 244 ft | 134 kts | 280° |
| 2026-05-06 22:06 | 37.01375 | -7.96092 | 47 ft | 129 kts | 281° |
| 2026-05-06 22:06 | 37.01511 | -7.97056 | 24 ft | 86 kts | 279° |
| 2026-05-06 22:07 | 37.01573 | -7.97535 | 25 ft | 43 kts | 281° |
| 2026-05-06 22:07 | 37.01606 | -7.97759 | 22 ft | 19 kts | 284° |
| 2026-05-06 22:07 | 37.01665 | -7.97846 | 24 ft | 13 kts | 2° |
| 2026-05-06 22:07 | 37.01734 | -7.97779 | 23 ft | 14 kts | 60° |
| 2026-05-06 22:08 | 37.01768 | -7.97661 | 24 ft | 15 kts | 79° |
| 2026-05-06 22:08 | 37.01761 | -7.97520 | 23 ft | 18 kts | 98° |
| 2026-05-06 22:08 | 37.01742 | -7.97361 | 25 ft | 19 kts | 101° |
| 2026-05-06 22:08 | 37.01713 | -7.97188 | 24 ft | 21 kts | 99° |
| 2026-05-06 22:09 | 37.01693 | -7.97021 | 23 ft | 14 kts | 101° |
| 2026-05-06 22:09 | 37.01686 | -7.96978 | 23 ft | 0 kts | 101° |
| 2026-05-06 22:09 | 37.01685 | -7.96970 | 25 ft | 3 kts | 97° |
| 2026-05-06 22:10 | 37.01712 | -7.96914 | 25 ft | 12 kts | 25° |
| 2026-05-06 22:10 | 37.01795 | -7.96886 | 25 ft | 13 kts | 26° |
| 2026-05-06 22:10 | 37.01821 | -7.96783 | 23 ft | 14 kts | 97° |
| 2026-05-06 22:10 | 37.01804 | -7.96651 | 23 ft | 16 kts | 99° |
| 2026-05-06 22:11 | 37.01800 | -7.96563 | 23 ft | 8 kts | 50° |
| 2026-05-06 22:11 | 37.01850 | -7.96538 | 23 ft | 5 kts | 12° |
| 2026-05-06 22:11 | 37.01865 | -7.96534 | 25 ft | 0 kts | 11° |